sensor_id;sensor_type;location;lat;lon;timestamp;pressure;altitude;pressure_sealevel;temperature
72278;BMP280;61204;49.980;8.358;2023-03-23T00:01:14;99829.63;;;14.05
72278;BMP280;61204;49.980;8.358;2023-03-23T00:03:45;99831.34;;;13.96
72278;BMP280;61204;49.980;8.358;2023-03-23T00:06:14;99828.19;;;13.88
72278;BMP280;61204;49.980;8.358;2023-03-23T00:08:42;99833.16;;;13.76
72278;BMP280;61204;49.980;8.358;2023-03-23T00:11:15;99835.34;;;13.63
72278;BMP280;61204;49.980;8.358;2023-03-23T00:13:45;99824.66;;;13.56
72278;BMP280;61204;49.980;8.358;2023-03-23T00:16:16;99827.97;;;13.52
72278;BMP280;61204;49.980;8.358;2023-03-23T00:18:44;99836.53;;;13.45
72278;BMP280;61204;49.980;8.358;2023-03-23T00:21:19;99824.19;;;13.46
72278;BMP280;61204;49.980;8.358;2023-03-23T00:23:50;99830.22;;;13.42
72278;BMP280;61204;49.980;8.358;2023-03-23T00:26:18;99820.66;;;13.43
72278;BMP280;61204;49.980;8.358;2023-03-23T00:28:43;99815.84;;;13.43
72278;BMP280;61204;49.980;8.358;2023-03-23T00:31:11;99818.69;;;13.46
72278;BMP280;61204;49.980;8.358;2023-03-23T00:33:38;99811.84;;;13.47
72278;BMP280;61204;49.980;8.358;2023-03-23T00:36:05;99797.47;;;13.48
72278;BMP280;61204;49.980;8.358;2023-03-23T00:38:39;99792.38;;;13.42
72278;BMP280;61204;49.980;8.358;2023-03-23T00:41:09;99793.81;;;13.43
72278;BMP280;61204;49.980;8.358;2023-03-23T00:43:36;99794.41;;;13.42
72278;BMP280;61204;49.980;8.358;2023-03-23T00:46:04;99798.63;;;13.43
72278;BMP280;61204;49.980;8.358;2023-03-23T00:48:34;99795.13;;;13.42
72278;BMP280;61204;49.980;8.358;2023-03-23T00:51:09;99790.59;;;13.33
72278;BMP280;61204;49.980;8.358;2023-03-23T00:53:36;99793.78;;;13.28
72278;BMP280;61204;49.980;8.358;2023-03-23T00:56:03;99792.84;;;13.23
72278;BMP280;61204;49.980;8.358;2023-03-23T00:58:29;99795.53;;;13.21
72278;BMP280;61204;49.980;8.358;2023-03-23T01:00:55;99788.63;;;13.20
72278;BMP280;61204;49.980;8.358;2023-03-23T01:03:21;99791.97;;;13.19
72278;BMP280;61204;49.980;8.358;2023-03-23T01:05:50;99794.84;;;13.21
72278;BMP280;61204;49.980;8.358;2023-03-23T01:08:17;99790.81;;;13.24
72278;BMP280;61204;49.980;8.358;2023-03-23T01:10:45;99775.03;;;13.24
72278;BMP280;61204;49.980;8.358;2023-03-23T01:13:11;99785.94;;;13.22
72278;BMP280;61204;49.980;8.358;2023-03-23T01:15:38;99785.88;;;13.20
72278;BMP280;61204;49.980;8.358;2023-03-23T01:18:04;99788.63;;;13.20
72278;BMP280;61204;49.980;8.358;2023-03-23T01:20:30;99795.91;;;13.29
72278;BMP280;61204;49.980;8.358;2023-03-23T01:22:57;99793.03;;;13.27
72278;BMP280;61204;49.980;8.358;2023-03-23T01:25:26;99798.78;;;13.31
72278;BMP280;61204;49.980;8.358;2023-03-23T01:27:53;99805.69;;;13.32
72278;BMP280;61204;49.980;8.358;2023-03-23T01:30:19;99792.19;;;13.38
72278;BMP280;61204;49.980;8.358;2023-03-23T01:32:48;99792.19;;;13.38
72278;BMP280;61204;49.980;8.358;2023-03-23T01:35:14;99780.31;;;13.50
72278;BMP280;61204;49.980;8.358;2023-03-23T01:37:41;99770.78;;;13.82
72278;BMP280;61204;49.980;8.358;2023-03-23T01:40:08;99771.47;;;13.83
72278;BMP280;61204;49.980;8.358;2023-03-23T01:42:36;99776.94;;;13.96
72278;BMP280;61204;49.980;8.358;2023-03-23T01:48:01;99776.72;;;14.24
72278;BMP280;61204;49.980;8.358;2023-03-23T01:50:38;99773.94;;;14.24
72278;BMP280;61204;49.980;8.358;2023-03-23T01:53:15;99765.78;;;14.26
72278;BMP280;61204;49.980;8.358;2023-03-23T01:55:41;99760.66;;;14.36
72278;BMP280;61204;49.980;8.358;2023-03-23T01:58:13;99771.66;;;14.34
72278;BMP280;61204;49.980;8.358;2023-03-23T02:00:42;99761.50;;;14.23
72278;BMP280;61204;49.980;8.358;2023-03-23T02:03:11;99763.47;;;14.20
72278;BMP280;61204;49.980;8.358;2023-03-23T02:05:41;99763.81;;;14.13
72278;BMP280;61204;49.980;8.358;2023-03-23T02:08:08;99759.72;;;14.14
72278;BMP280;61204;49.980;8.358;2023-03-23T02:10:36;99764.53;;;14.13
72278;BMP280;61204;49.980;8.358;2023-03-23T02:13:05;99766.41;;;14.09
72278;BMP280;61204;49.980;8.358;2023-03-23T02:15:36;99766.16;;;14.03
72278;BMP280;61204;49.980;8.358;2023-03-23T02:30:41;99751.81;;;14.06
72278;BMP280;61204;49.980;8.358;2023-03-23T02:35:57;99752.66;;;13.77
72278;BMP280;61204;49.980;8.358;2023-03-23T02:38:41;99763.84;;;13.65
72278;BMP280;61204;49.980;8.358;2023-03-23T02:41:08;99750.31;;;13.40
72278;BMP280;61204;49.980;8.358;2023-03-23T02:43:40;99742.09;;;13.26
72278;BMP280;61204;49.980;8.358;2023-03-23T02:46:10;99739.13;;;13.22
72278;BMP280;61204;49.980;8.358;2023-03-23T02:48:39;99732.47;;;13.27
72278;BMP280;61204;49.980;8.358;2023-03-23T02:51:09;99719.06;;;13.20
72278;BMP280;61204;49.980;8.358;2023-03-23T02:53:40;99719.84;;;13.06
72278;BMP280;61204;49.980;8.358;2023-03-23T02:56:08;99717.81;;;13.07
72278;BMP280;61204;49.980;8.358;2023-03-23T02:58:37;99721.97;;;13.08
72278;BMP280;61204;49.980;8.358;2023-03-23T03:01:16;99721.03;;;13.17
72278;BMP280;61204;49.980;8.358;2023-03-23T03:04:03;99721.44;;;13.11
72278;BMP280;61204;49.980;8.358;2023-03-23T03:12:25;99706.63;;;12.89
72278;BMP280;61204;49.980;8.358;2023-03-23T03:15:33;99700.16;;;12.82
72278;BMP280;61204;49.980;8.358;2023-03-23T03:21:12;99706.72;;;12.62
72278;BMP280;61204;49.980;8.358;2023-03-23T03:23:45;99699.09;;;12.60
72278;BMP280;61204;49.980;8.358;2023-03-23T03:26:14;99696.41;;;12.76
72278;BMP280;61204;49.980;8.358;2023-03-23T03:28:42;99714.03;;;12.71
72278;BMP280;61204;49.980;8.358;2023-03-23T03:31:12;99711.41;;;12.73
72278;BMP280;61204;49.980;8.358;2023-03-23T03:33:43;99707.09;;;12.70
72278;BMP280;61204;49.980;8.358;2023-03-23T03:36:14;99705.06;;;12.70
72278;BMP280;61204;49.980;8.358;2023-03-23T03:38:46;99720.28;;;12.57
72278;BMP280;61204;49.980;8.358;2023-03-23T03:41:15;99708.97;;;12.51
72278;BMP280;61204;49.980;8.358;2023-03-23T03:43:44;99703.97;;;12.48
72278;BMP280;61204;49.980;8.358;2023-03-23T03:46:10;99691.28;;;12.41
72278;BMP280;61204;49.980;8.358;2023-03-23T03:48:35;99698.69;;;12.52
72278;BMP280;61204;49.980;8.358;2023-03-23T03:51:03;99700.94;;;12.42
72278;BMP280;61204;49.980;8.358;2023-03-23T03:53:29;99695.75;;;12.34
72278;BMP280;61204;49.980;8.358;2023-03-23T03:55:55;99698.91;;;12.28
72278;BMP280;61204;49.980;8.358;2023-03-23T03:58:24;99694.94;;;12.18
72278;BMP280;61204;49.980;8.358;2023-03-23T04:00:56;99684.16;;;12.08
72278;BMP280;61204;49.980;8.358;2023-03-23T04:03:24;99690.38;;;12.09
72278;BMP280;61204;49.980;8.358;2023-03-23T04:05:51;99698.94;;;12.15
72278;BMP280;61204;49.980;8.358;2023-03-23T04:08:21;99709.00;;;12.10
72278;BMP280;61204;49.980;8.358;2023-03-23T04:10:48;99703.41;;;12.08
72278;BMP280;61204;49.980;8.358;2023-03-23T04:13:14;99701.97;;;12.07
72278;BMP280;61204;49.980;8.358;2023-03-23T04:15:40;99699.09;;;12.05
72278;BMP280;61204;49.980;8.358;2023-03-23T04:18:06;99701.78;;;12.03
72278;BMP280;61204;49.980;8.358;2023-03-23T04:20:32;99709.28;;;12.02
72278;BMP280;61204;49.980;8.358;2023-03-23T04:22:59;99709.91;;;12.01
72278;BMP280;61204;49.980;8.358;2023-03-23T04:25:25;99716.13;;;12.01
72278;BMP280;61204;49.980;8.358;2023-03-23T04:27:53;99712.97;;;12.07
72278;BMP280;61204;49.980;8.358;2023-03-23T04:30:23;99728.44;;;12.14
72278;BMP280;61204;49.980;8.358;2023-03-23T04:32:52;99721.91;;;12.21
72278;BMP280;61204;49.980;8.358;2023-03-23T04:35:20;99725.69;;;12.28
72278;BMP280;61204;49.980;8.358;2023-03-23T04:37:52;99732.28;;;12.37
72278;BMP280;61204;49.980;8.358;2023-03-23T04:40:19;99736.94;;;12.75
72278;BMP280;61204;49.980;8.358;2023-03-23T04:42:46;99746.00;;;13.07
72278;BMP280;61204;49.980;8.358;2023-03-23T04:45:14;99743.50;;;13.27
72278;BMP280;61204;49.980;8.358;2023-03-23T04:47:47;99737.94;;;13.41
72278;BMP280;61204;49.980;8.358;2023-03-23T04:50:18;99732.91;;;13.51
72278;BMP280;61204;49.980;8.358;2023-03-23T04:52:49;99745.50;;;13.56
72278;BMP280;61204;49.980;8.358;2023-03-23T04:55:16;99737.44;;;13.60
72278;BMP280;61204;49.980;8.358;2023-03-23T04:57:45;99742.16;;;13.58
72278;BMP280;61204;49.980;8.358;2023-03-23T05:00:12;99737.09;;;13.52
72278;BMP280;61204;49.980;8.358;2023-03-23T05:02:41;99742.09;;;13.42
72278;BMP280;61204;49.980;8.358;2023-03-23T05:05:09;99746.03;;;13.37
72278;BMP280;61204;49.980;8.358;2023-03-23T05:07:40;99741.91;;;13.22
72278;BMP280;61204;49.980;8.358;2023-03-23T05:10:07;99748.94;;;13.25
72278;BMP280;61204;49.980;8.358;2023-03-23T05:12:35;99748.78;;;13.37
72278;BMP280;61204;49.980;8.358;2023-03-23T05:15:01;99750.81;;;13.36
72278;BMP280;61204;49.980;8.358;2023-03-23T05:17:27;99762.00;;;13.40
72278;BMP280;61204;49.980;8.358;2023-03-23T05:19:55;99756.59;;;13.42
72278;BMP280;61204;49.980;8.358;2023-03-23T05:22:21;99759.63;;;13.49
72278;BMP280;61204;49.980;8.358;2023-03-23T05:24:52;99758.56;;;13.56
72278;BMP280;61204;49.980;8.358;2023-03-23T05:27:20;99755.72;;;13.54
72278;BMP280;61204;49.980;8.358;2023-03-23T05:29:45;99760.34;;;13.49
72278;BMP280;61204;49.980;8.358;2023-03-23T05:32:17;99760.25;;;13.47
72278;BMP280;61204;49.980;8.358;2023-03-23T05:34:44;99764.84;;;13.42
72278;BMP280;61204;49.980;8.358;2023-03-23T05:37:09;99763.41;;;13.41
72278;BMP280;61204;49.980;8.358;2023-03-23T05:39:38;99756.31;;;13.36
72278;BMP280;61204;49.980;8.358;2023-03-23T05:42:07;99749.31;;;13.33
72278;BMP280;61204;49.980;8.358;2023-03-23T05:44:33;99750.66;;;13.32
72278;BMP280;61204;49.980;8.358;2023-03-23T05:47:01;99761.44;;;13.28
72278;BMP280;61204;49.980;8.358;2023-03-23T05:49:26;99765.94;;;13.22
72278;BMP280;61204;49.980;8.358;2023-03-23T05:51:52;99771.38;;;13.20
72278;BMP280;61204;49.980;8.358;2023-03-23T05:54:20;99774.84;;;13.20
72278;BMP280;61204;49.980;8.358;2023-03-23T05:56:48;99782.88;;;13.16
72278;BMP280;61204;49.980;8.358;2023-03-23T05:59:14;99786.25;;;13.14
72278;BMP280;61204;49.980;8.358;2023-03-23T06:01:40;99783.84;;;13.07
72278;BMP280;61204;49.980;8.358;2023-03-23T06:04:05;99784.53;;;13.07
72278;BMP280;61204;49.980;8.358;2023-03-23T06:06:31;99786.59;;;13.07
72278;BMP280;61204;49.980;8.358;2023-03-23T06:08:59;99794.03;;;13.04
72278;BMP280;61204;49.980;8.358;2023-03-23T06:11:24;99784.66;;;13.09
72278;BMP280;61204;49.980;8.358;2023-03-23T06:13:51;99780.56;;;13.10
72278;BMP280;61204;49.980;8.358;2023-03-23T06:16:19;99787.22;;;13.05
72278;BMP280;61204;49.980;8.358;2023-03-23T06:18:45;99793.63;;;12.96
72278;BMP280;61204;49.980;8.358;2023-03-23T06:21:13;99800.03;;;13.01
72278;BMP280;61204;49.980;8.358;2023-03-23T06:23:39;99790.19;;;12.96
72278;BMP280;61204;49.980;8.358;2023-03-23T06:26:05;99799.47;;;12.89
72278;BMP280;61204;49.980;8.358;2023-03-23T06:28:33;99794.47;;;12.85
72278;BMP280;61204;49.980;8.358;2023-03-23T06:31:00;99796.53;;;12.84
72278;BMP280;61204;49.980;8.358;2023-03-23T06:33:29;99806.38;;;12.90
72278;BMP280;61204;49.980;8.358;2023-03-23T06:35:55;99814.22;;;12.95
72278;BMP280;61204;49.980;8.358;2023-03-23T06:38:21;99805.88;;;12.93
72278;BMP280;61204;49.980;8.358;2023-03-23T06:40:46;99789.34;;;13.07
72278;BMP280;61204;49.980;8.358;2023-03-23T06:43:13;99801.06;;;13.07
72278;BMP280;61204;49.980;8.358;2023-03-23T06:45:39;99808.72;;;13.09
72278;BMP280;61204;49.980;8.358;2023-03-23T06:48:04;99805.72;;;13.19
72278;BMP280;61204;49.980;8.358;2023-03-23T06:50:30;99806.94;;;13.15
72278;BMP280;61204;49.980;8.358;2023-03-23T06:52:56;99804.00;;;13.25
72278;BMP280;61204;49.980;8.358;2023-03-23T06:55:22;99816.59;;;13.30
72278;BMP280;61204;49.980;8.358;2023-03-23T06:57:47;99797.94;;;13.29
72278;BMP280;61204;49.980;8.358;2023-03-23T07:00:13;99789.19;;;13.32
72278;BMP280;61204;49.980;8.358;2023-03-23T07:02:40;99799.06;;;13.24
72278;BMP280;61204;49.980;8.358;2023-03-23T07:05:06;99804.84;;;13.14
72278;BMP280;61204;49.980;8.358;2023-03-23T07:07:34;99798.09;;;13.17
72278;BMP280;61204;49.980;8.358;2023-03-23T07:10:01;99802.28;;;13.18
72278;BMP280;61204;49.980;8.358;2023-03-23T07:12:28;99793.88;;;13.16
72278;BMP280;61204;49.980;8.358;2023-03-23T07:14:54;99801.81;;;13.24
72278;BMP280;61204;49.980;8.358;2023-03-23T07:17:20;99801.41;;;13.29
72278;BMP280;61204;49.980;8.358;2023-03-23T07:19:46;99801.81;;;13.24
72278;BMP280;61204;49.980;8.358;2023-03-23T07:22:12;99800.63;;;13.27
72278;BMP280;61204;49.980;8.358;2023-03-23T07:24:37;99804.47;;;13.35
72278;BMP280;61204;49.980;8.358;2023-03-23T07:27:03;99807.94;;;13.22
72278;BMP280;61204;49.980;8.358;2023-03-23T07:29:29;99814.88;;;13.23
72278;BMP280;61204;49.980;8.358;2023-03-23T07:31:54;99823.75;;;13.22
72278;BMP280;61204;49.980;8.358;2023-03-23T07:34:20;99824.59;;;13.24
72278;BMP280;61204;49.980;8.358;2023-03-23T07:36:46;99812.13;;;13.23
72278;BMP280;61204;49.980;8.358;2023-03-23T07:39:12;99806.53;;;13.21
72278;BMP280;61204;49.980;8.358;2023-03-23T07:41:38;99822.53;;;13.25
72278;BMP280;61204;49.980;8.358;2023-03-23T07:44:04;99816.00;;;13.32
72278;BMP280;61204;49.980;8.358;2023-03-23T07:46:31;99817.94;;;13.29
72278;BMP280;61204;49.980;8.358;2023-03-23T07:48:57;99814.31;;;13.40
72278;BMP280;61204;49.980;8.358;2023-03-23T07:51:25;99822.78;;;13.45
72278;BMP280;61204;49.980;8.358;2023-03-23T07:53:50;99831.84;;;13.47
72278;BMP280;61204;49.980;8.358;2023-03-23T07:56:16;99832.75;;;13.52
72278;BMP280;61204;49.980;8.358;2023-03-23T07:58:46;99843.84;;;13.54
72278;BMP280;61204;49.980;8.358;2023-03-23T08:01:14;99840.91;;;13.50
72278;BMP280;61204;49.980;8.358;2023-03-23T08:03:40;99859.53;;;13.65
72278;BMP280;61204;49.980;8.358;2023-03-23T08:06:06;99856.22;;;13.68
72278;BMP280;61204;49.980;8.358;2023-03-23T08:08:33;99864.59;;;13.70
72278;BMP280;61204;49.980;8.358;2023-03-23T08:10:59;99863.00;;;13.65
72278;BMP280;61204;49.980;8.358;2023-03-23T08:13:25;99861.34;;;13.60
72278;BMP280;61204;49.980;8.358;2023-03-23T08:15:50;99863.19;;;13.69
72278;BMP280;61204;49.980;8.358;2023-03-23T08:18:16;99856.75;;;13.65
72278;BMP280;61204;49.980;8.358;2023-03-23T08:20:43;99859.44;;;13.63
72278;BMP280;61204;49.980;8.358;2023-03-23T08:23:13;99861.91;;;13.57
72278;BMP280;61204;49.980;8.358;2023-03-23T08:25:40;99871.66;;;13.60
72278;BMP280;61204;49.980;8.358;2023-03-23T08:28:08;99870.97;;;13.59
72278;BMP280;61204;49.980;8.358;2023-03-23T08:30:37;99881.09;;;13.55
72278;BMP280;61204;49.980;8.358;2023-03-23T08:33:04;99886.78;;;13.59
72278;BMP280;61204;49.980;8.358;2023-03-23T08:35:31;99886.16;;;13.60
72278;BMP280;61204;49.980;8.358;2023-03-23T08:37:56;99895.94;;;13.63
72278;BMP280;61204;49.980;8.358;2023-03-23T08:40:22;99892.47;;;13.63
72278;BMP280;61204;49.980;8.358;2023-03-23T08:42:50;99889.91;;;13.67
72278;BMP280;61204;49.980;8.358;2023-03-23T08:45:18;99886.53;;;13.68
72278;BMP280;61204;49.980;8.358;2023-03-23T08:47:49;99878.22;;;13.82
72278;BMP280;61204;49.980;8.358;2023-03-23T08:50:20;99874.84;;;13.84
72278;BMP280;61204;49.980;8.358;2023-03-23T08:52:51;99871.66;;;13.89
72278;BMP280;61204;49.980;8.358;2023-03-23T08:55:19;99877.56;;;13.97
72278;BMP280;61204;49.980;8.358;2023-03-23T08:57:47;99875.06;;;14.04
72278;BMP280;61204;49.980;8.358;2023-03-23T09:00:16;99871.94;;;13.95
72278;BMP280;61204;49.980;8.358;2023-03-23T09:02:45;99873.25;;;14.10
72278;BMP280;61204;49.980;8.358;2023-03-23T09:05:14;99890.38;;;14.22
72278;BMP280;61204;49.980;8.358;2023-03-23T09:07:46;99884.03;;;14.36
72278;BMP280;61204;49.980;8.358;2023-03-23T09:10:14;99891.69;;;14.53
72278;BMP280;61204;49.980;8.358;2023-03-23T09:12:44;99896.34;;;14.64
72278;BMP280;61204;49.980;8.358;2023-03-23T09:15:12;99900.94;;;14.75
72278;BMP280;61204;49.980;8.358;2023-03-23T09:17:42;99902.59;;;14.82
72278;BMP280;61204;49.980;8.358;2023-03-23T09:20:11;99897.59;;;14.95
72278;BMP280;61204;49.980;8.358;2023-03-23T09:22:40;99901.13;;;15.31
72278;BMP280;61204;49.980;8.358;2023-03-23T09:25:10;99900.56;;;15.52
72278;BMP280;61204;49.980;8.358;2023-03-23T09:27:39;99901.75;;;15.65
72278;BMP280;61204;49.980;8.358;2023-03-23T09:30:06;99914.88;;;15.64
72278;BMP280;61204;49.980;8.358;2023-03-23T09:32:36;99921.09;;;16.00
72278;BMP280;61204;49.980;8.358;2023-03-23T09:35:04;99915.81;;;16.26
72278;BMP280;61204;49.980;8.358;2023-03-23T09:37:34;99921.28;;;16.64
72278;BMP280;61204;49.980;8.358;2023-03-23T09:40:01;99927.56;;;16.67
72278;BMP280;61204;49.980;8.358;2023-03-23T09:50:52;99931.47;;;16.20
72278;BMP280;61204;49.980;8.358;2023-03-23T09:53:30;99941.19;;;16.21
72278;BMP280;61204;49.980;8.358;2023-03-23T09:56:10;99925.44;;;15.88
72278;BMP280;61204;49.980;8.358;2023-03-23T09:58:59;99927.19;;;15.61
72278;BMP280;61204;49.980;8.358;2023-03-23T10:02:00;99928.72;;;15.31
72278;BMP280;61204;49.980;8.358;2023-03-23T10:04:46;99909.75;;;15.05
72278;BMP280;61204;49.980;8.358;2023-03-23T10:07:19;99922.34;;;14.93
72278;BMP280;61204;49.980;8.358;2023-03-23T10:09:52;99934.22;;;14.79
72278;BMP280;61204;49.980;8.358;2023-03-23T10:15:24;99924.69;;;14.67
72278;BMP280;61204;49.980;8.358;2023-03-23T10:31:32;99937.44;;;15.07
72278;BMP280;61204;49.980;8.358;2023-03-23T10:34:09;99961.50;;;15.05
72278;BMP280;61204;49.980;8.358;2023-03-23T10:36:54;99941.28;;;15.00
72278;BMP280;61204;49.980;8.358;2023-03-23T10:39:55;99934.53;;;15.03
72278;BMP280;61204;49.980;8.358;2023-03-23T10:42:31;99951.63;;;15.00
72278;BMP280;61204;49.980;8.358;2023-03-23T10:45:09;99945.66;;;15.05
72278;BMP280;61204;49.980;8.358;2023-03-23T10:47:43;99946.06;;;15.15
72278;BMP280;61204;49.980;8.358;2023-03-23T10:50:21;99945.16;;;15.27
72278;BMP280;61204;49.980;8.358;2023-03-23T10:52:53;99940.78;;;15.55
72278;BMP280;61204;49.980;8.358;2023-03-23T10:55:23;99945.09;;;15.60
72278;BMP280;61204;49.980;8.358;2023-03-23T10:58:21;99939.31;;;15.90
72278;BMP280;61204;49.980;8.358;2023-03-23T11:00:53;99942.84;;;16.10
72278;BMP280;61204;49.980;8.358;2023-03-23T11:06:20;99937.84;;;16.44
72278;BMP280;61204;49.980;8.358;2023-03-23T11:08:55;99954.00;;;16.70
72278;BMP280;61204;49.980;8.358;2023-03-23T11:11:28;99941.19;;;16.80
72278;BMP280;61204;49.980;8.358;2023-03-23T11:16:57;99955.69;;;16.79
72278;BMP280;61204;49.980;8.358;2023-03-23T11:24:35;99978.75;;;16.46
72278;BMP280;61204;49.980;8.358;2023-03-23T11:27:06;99960.34;;;16.34
72278;BMP280;61204;49.980;8.358;2023-03-23T11:29:33;99959.75;;;16.18
72278;BMP280;61204;49.980;8.358;2023-03-23T11:32:08;99969.09;;;16.09
72278;BMP280;61204;49.980;8.358;2023-03-23T11:34:43;99977.25;;;16.05
72278;BMP280;61204;49.980;8.358;2023-03-23T11:39:55;99970.59;;;15.77
72278;BMP280;61204;49.980;8.358;2023-03-23T11:50:52;99989.41;;;16.16
72278;BMP280;61204;49.980;8.358;2023-03-23T11:56:04;99973.97;;;16.11
72278;BMP280;61204;49.980;8.358;2023-03-23T11:58:40;99972.56;;;16.27
72278;BMP280;61204;49.980;8.358;2023-03-23T12:01:11;99976.09;;;16.50
72278;BMP280;61204;49.980;8.358;2023-03-23T12:21:16;99940.28;;;16.74
72278;BMP280;61204;49.980;8.358;2023-03-23T12:30:23;99925.91;;;16.38
72278;BMP280;61204;49.980;8.358;2023-03-23T12:33:24;99925.53;;;16.47
72278;BMP280;61204;49.980;8.358;2023-03-23T12:48:16;99909.31;;;16.38
72278;BMP280;61204;49.980;8.358;2023-03-23T12:53:51;99914.09;;;16.77
72278;BMP280;61204;49.980;8.358;2023-03-23T12:59:54;99922.75;;;16.87
72278;BMP280;61204;49.980;8.358;2023-03-23T13:05:09;99921.28;;;16.64
72278;BMP280;61204;49.980;8.358;2023-03-23T13:07:53;99912.81;;;16.80
72278;BMP280;61204;49.980;8.358;2023-03-23T13:10:48;99922.34;;;16.97
72278;BMP280;61204;49.980;8.358;2023-03-23T13:13:26;99911.66;;;16.87
72278;BMP280;61204;49.980;8.358;2023-03-23T13:16:13;99897.75;;;16.85
72278;BMP280;61204;49.980;8.358;2023-03-23T13:18:59;99898.44;;;16.85
72278;BMP280;61204;49.980;8.358;2023-03-23T13:21:43;99894.88;;;16.61
72278;BMP280;61204;49.980;8.358;2023-03-23T13:24:26;99894.66;;;16.55
72278;BMP280;61204;49.980;8.358;2023-03-23T13:26:59;99895.31;;;16.33
72278;BMP280;61204;49.980;8.358;2023-03-23T13:29:26;99892.19;;;16.43
72278;BMP280;61204;49.980;8.358;2023-03-23T13:32:10;99885.78;;;16.39
72278;BMP280;61204;49.980;8.358;2023-03-23T13:34:42;99876.88;;;16.20
72278;BMP280;61204;49.980;8.358;2023-03-23T13:37:29;99887.84;;;16.18
72278;BMP280;61204;49.980;8.358;2023-03-23T13:39:57;99882.66;;;16.09
72278;BMP280;61204;49.980;8.358;2023-03-23T13:42:32;99880.38;;;16.03
72278;BMP280;61204;49.980;8.358;2023-03-23T13:47:49;99879.66;;;16.02
72278;BMP280;61204;49.980;8.358;2023-03-23T13:56:20;99878.25;;;16.01
72278;BMP280;61204;49.980;8.358;2023-03-23T13:59:14;99889.84;;;16.16
72278;BMP280;61204;49.980;8.358;2023-03-23T14:01:56;99883.03;;;16.19
72278;BMP280;61204;49.980;8.358;2023-03-23T14:05:07;99876.38;;;16.26
72278;BMP280;61204;49.980;8.358;2023-03-23T14:14:13;99887.59;;;16.30
72278;BMP280;61204;49.980;8.358;2023-03-23T14:16:42;99883.94;;;16.25
72278;BMP280;61204;49.980;8.358;2023-03-23T14:19:14;99896.09;;;16.16
72278;BMP280;61204;49.980;8.358;2023-03-23T14:21:54;99891.94;;;15.97
72278;BMP280;61204;49.980;8.358;2023-03-23T14:24:32;99881.84;;;15.86
72278;BMP280;61204;49.980;8.358;2023-03-23T14:29:33;99897.56;;;15.64
72278;BMP280;61204;49.980;8.358;2023-03-23T14:31:58;99884.09;;;15.54
72278;BMP280;61204;49.980;8.358;2023-03-23T14:34:27;99899.22;;;15.53
72278;BMP280;61204;49.980;8.358;2023-03-23T14:36:59;99899.94;;;15.54
72278;BMP280;61204;49.980;8.358;2023-03-23T14:39:26;99886.28;;;15.58
72278;BMP280;61204;49.980;8.358;2023-03-23T14:41:54;99892.63;;;15.60
72278;BMP280;61204;49.980;8.358;2023-03-23T14:44:30;99886.38;;;15.60
72278;BMP280;61204;49.980;8.358;2023-03-23T14:47:01;99888.56;;;15.63
72278;BMP280;61204;49.980;8.358;2023-03-23T14:49:36;99905.81;;;15.62
72278;BMP280;61204;49.980;8.358;2023-03-23T14:54:40;99886.38;;;15.60
72278;BMP280;61204;49.980;8.358;2023-03-23T14:57:11;99894.09;;;15.63
72278;BMP280;61204;49.980;8.358;2023-03-23T14:59:52;99899.13;;;15.69
72278;BMP280;61204;49.980;8.358;2023-03-23T15:02:37;99886.00;;;15.67
72278;BMP280;61204;49.980;8.358;2023-03-23T15:05:09;99890.25;;;15.70
72278;BMP280;61204;49.980;8.358;2023-03-23T15:07:40;99886.53;;;15.64
72278;BMP280;61204;49.980;8.358;2023-03-23T15:10:15;99886.00;;;15.67
72278;BMP280;61204;49.980;8.358;2023-03-23T15:12:45;99886.00;;;15.67
72278;BMP280;61204;49.980;8.358;2023-03-23T15:15:35;99888.44;;;15.59
72278;BMP280;61204;49.980;8.358;2023-03-23T15:18:01;99882.81;;;15.57
72278;BMP280;61204;49.980;8.358;2023-03-23T15:23:17;99898.22;;;15.62
72278;BMP280;61204;49.980;8.358;2023-03-23T15:25:55;99905.41;;;15.69
72278;BMP280;61204;49.980;8.358;2023-03-23T15:28:29;99899.72;;;15.65
72278;BMP280;61204;49.980;8.358;2023-03-23T15:30:59;99891.50;;;15.67
72278;BMP280;61204;49.980;8.358;2023-03-23T15:33:33;99878.47;;;15.70
72278;BMP280;61204;49.980;8.358;2023-03-23T15:36:06;99877.44;;;15.61
72278;BMP280;61204;49.980;8.358;2023-03-23T15:38:42;99876.97;;;15.49
72278;BMP280;61204;49.980;8.358;2023-03-23T15:41:21;99881.16;;;15.50
72278;BMP280;61204;49.980;8.358;2023-03-23T15:44:09;99887.00;;;15.40
72278;BMP280;61204;49.980;8.358;2023-03-23T15:46:51;99891.50;;;15.32
72278;BMP280;61204;49.980;8.358;2023-03-23T15:49:26;99891.59;;;15.34
72278;BMP280;61204;49.980;8.358;2023-03-23T15:51:51;99877.13;;;15.18
72278;BMP280;61204;49.980;8.358;2023-03-23T15:54:17;99879.72;;;15.13
72278;BMP280;61204;49.980;8.358;2023-03-23T15:56:43;99872.88;;;14.81
72278;BMP280;61204;49.980;8.358;2023-03-23T15:59:09;99855.50;;;14.45
72278;BMP280;61204;49.980;8.358;2023-03-23T16:01:36;99853.63;;;14.49
72278;BMP280;61204;49.980;8.358;2023-03-23T16:06:39;99842.25;;;14.25
72278;BMP280;61204;49.980;8.358;2023-03-23T16:09:06;99853.09;;;14.21
72278;BMP280;61204;49.980;8.358;2023-03-23T16:11:37;99830.44;;;14.07
72278;BMP280;61204;49.980;8.358;2023-03-23T16:14:02;99830.88;;;14.02
72278;BMP280;61204;49.980;8.358;2023-03-23T16:16:32;99831.91;;;14.10
72278;BMP280;61204;49.980;8.358;2023-03-23T16:19:03;99824.09;;;14.05
72278;BMP280;61204;49.980;8.358;2023-03-23T16:21:30;99823.41;;;14.04
72278;BMP280;61204;49.980;8.358;2023-03-23T16:23:56;99830.09;;;14.15
72278;BMP280;61204;49.980;8.358;2023-03-23T16:26:21;99825.34;;;14.02
72278;BMP280;61204;49.980;8.358;2023-03-23T16:28:47;99817.59;;;13.98
72278;BMP280;61204;49.980;8.358;2023-03-23T16:31:13;99815.31;;;13.92
72278;BMP280;61204;49.980;8.358;2023-03-23T16:33:38;99811.84;;;13.92
72278;BMP280;61204;49.980;8.358;2023-03-23T16:36:04;99809.81;;;13.92
72278;BMP280;61204;49.980;8.358;2023-03-23T16:38:30;99809.16;;;13.94
72278;BMP280;61204;49.980;8.358;2023-03-23T16:40:55;99815.50;;;13.96
72278;BMP280;61204;49.980;8.358;2023-03-23T16:43:21;99813.25;;;13.93
72278;BMP280;61204;49.980;8.358;2023-03-23T16:45:46;99808.19;;;13.87
72278;BMP280;61204;49.980;8.358;2023-03-23T16:48:13;99811.75;;;13.90
72278;BMP280;61204;49.980;8.358;2023-03-23T16:50:40;99813.81;;;13.89
72278;BMP280;61204;49.980;8.358;2023-03-23T16:53:08;99820.19;;;13.94
72278;BMP280;61204;49.980;8.358;2023-03-23T16:55:37;99820.31;;;13.96